sensor_id;sensor_type;location;lat;lon;timestamp;P1;durP1;ratioP1;P2;durP2;ratioP2
22378;SDS011;11357;49.990;7.370;2022-11-20T00:00:36;6.50;;;5.90;;
22378;SDS011;11357;49.990;7.370;2022-11-20T00:03:02;5.43;;;4.97;;
22378;SDS011;11357;49.990;7.370;2022-11-20T00:05:27;6.90;;;6.37;;
22378;SDS011;11357;49.990;7.370;2022-11-20T00:07:53;7.27;;;6.57;;
22378;SDS011;11357;49.990;7.370;2022-11-20T00:10:19;5.37;;;4.93;;
22378;SDS011;11357;49.990;7.370;2022-11-20T00:12:45;5.13;;;4.70;;
22378;SDS011;11357;49.990;7.370;2022-11-20T00:15:10;6.63;;;6.07;;
22378;SDS011;11357;49.990;7.370;2022-11-20T00:17:36;6.10;;;5.50;;
22378;SDS011;11357;49.990;7.370;2022-11-20T00:20:02;5.93;;;5.43;;
22378;SDS011;11357;49.990;7.370;2022-11-20T00:22:28;7.17;;;6.47;;
22378;SDS011;11357;49.990;7.370;2022-11-20T00:24:53;6.40;;;5.47;;
22378;SDS011;11357;49.990;7.370;2022-11-20T00:27:19;7.10;;;6.47;;
22378;SDS011;11357;49.990;7.370;2022-11-20T00:29:45;5.97;;;5.43;;
22378;SDS011;11357;49.990;7.370;2022-11-20T00:32:10;5.90;;;5.40;;
22378;SDS011;11357;49.990;7.370;2022-11-20T00:34:36;6.80;;;6.20;;
22378;SDS011;11357;49.990;7.370;2022-11-20T00:37:02;7.90;;;7.27;;
22378;SDS011;11357;49.990;7.370;2022-11-20T00:39:27;6.30;;;5.70;;
22378;SDS011;11357;49.990;7.370;2022-11-20T00:41:53;6.23;;;5.63;;
22378;SDS011;11357;49.990;7.370;2022-11-20T00:44:19;5.03;;;4.47;;
22378;SDS011;11357;49.990;7.370;2022-11-20T00:46:44;6.07;;;5.03;;
22378;SDS011;11357;49.990;7.370;2022-11-20T00:49:10;7.13;;;6.50;;
22378;SDS011;11357;49.990;7.370;2022-11-20T00:51:36;5.17;;;4.73;;
22378;SDS011;11357;49.990;7.370;2022-11-20T00:54:05;5.87;;;5.17;;
22378;SDS011;11357;49.990;7.370;2022-11-20T00:56:30;6.57;;;5.97;;
22378;SDS011;11357;49.990;7.370;2022-11-20T00:58:58;5.33;;;4.83;;
22378;SDS011;11357;49.990;7.370;2022-11-20T01:01:25;5.90;;;5.03;;
22378;SDS011;11357;49.990;7.370;2022-11-20T01:03:55;7.70;;;6.17;;
22378;SDS011;11357;49.990;7.370;2022-11-20T01:06:26;10.03;;;9.17;;
22378;SDS011;11357;49.990;7.370;2022-11-20T01:08:55;8.73;;;7.60;;
22378;SDS011;11357;49.990;7.370;2022-11-20T01:11:23;6.87;;;6.20;;
22378;SDS011;11357;49.990;7.370;2022-11-20T01:13:51;7.60;;;6.90;;
22378;SDS011;11357;49.990;7.370;2022-11-20T01:18:53;8.63;;;7.67;;
22378;SDS011;11357;49.990;7.370;2022-11-20T01:21:27;10.27;;;9.03;;
22378;SDS011;11357;49.990;7.370;2022-11-20T01:23:55;8.37;;;7.43;;
22378;SDS011;11357;49.990;7.370;2022-11-20T01:26:24;8.53;;;7.40;;
22378;SDS011;11357;49.990;7.370;2022-11-20T01:28:51;11.23;;;7.20;;
22378;SDS011;11357;49.990;7.370;2022-11-20T01:31:20;10.00;;;7.50;;
22378;SDS011;11357;49.990;7.370;2022-11-20T01:33:46;12.57;;;8.93;;
22378;SDS011;11357;49.990;7.370;2022-11-20T01:36:14;14.97;;;8.90;;
22378;SDS011;11357;49.990;7.370;2022-11-20T01:38:41;10.90;;;9.63;;
22378;SDS011;11357;49.990;7.370;2022-11-20T01:41:07;13.10;;;11.23;;
22378;SDS011;11357;49.990;7.370;2022-11-20T01:43:34;12.73;;;9.23;;
22378;SDS011;11357;49.990;7.370;2022-11-20T01:46:02;13.77;;;8.57;;
22378;SDS011;11357;49.990;7.370;2022-11-20T01:48:51;14.47;;;9.60;;
22378;SDS011;11357;49.990;7.370;2022-11-20T01:51:21;14.23;;;11.37;;
22378;SDS011;11357;49.990;7.370;2022-11-20T01:53:52;16.03;;;11.73;;
22378;SDS011;11357;49.990;7.370;2022-11-20T01:56:20;18.33;;;11.50;;
22378;SDS011;11357;49.990;7.370;2022-11-20T01:58:48;22.63;;;12.23;;
22378;SDS011;11357;49.990;7.370;2022-11-20T02:01:18;16.03;;;11.57;;
22378;SDS011;11357;49.990;7.370;2022-11-20T02:03:45;16.33;;;13.40;;
22378;SDS011;11357;49.990;7.370;2022-11-20T02:09:05;21.53;;;12.13;;
22378;SDS011;11357;49.990;7.370;2022-11-20T02:11:31;26.87;;;12.93;;
22378;SDS011;11357;49.990;7.370;2022-11-20T02:13:57;22.80;;;14.93;;
22378;SDS011;11357;49.990;7.370;2022-11-20T02:16:25;26.03;;;17.03;;
22378;SDS011;11357;49.990;7.370;2022-11-20T02:18:54;19.57;;;16.47;;
22378;SDS011;11357;49.990;7.370;2022-11-20T02:26:35;43.83;;;13.40;;
22378;SDS011;11357;49.990;7.370;2022-11-20T02:29:07;18.57;;;11.50;;
22378;SDS011;11357;49.990;7.370;2022-11-20T02:31:35;205.97;;;18.77;;
22378;SDS011;11357;49.990;7.370;2022-11-20T02:34:02;25.83;;;13.97;;
22378;SDS011;11357;49.990;7.370;2022-11-20T02:36:28;56.43;;;20.47;;
22378;SDS011;11357;49.990;7.370;2022-11-20T02:38:56;192.53;;;22.07;;
22378;SDS011;11357;49.990;7.370;2022-11-20T02:41:29;151.07;;;25.70;;
22378;SDS011;11357;49.990;7.370;2022-11-20T02:44:00;109.57;;;21.10;;
22378;SDS011;11357;49.990;7.370;2022-11-20T02:46:26;102.20;;;18.03;;
22378;SDS011;11357;49.990;7.370;2022-11-20T02:48:52;93.57;;;18.50;;
22378;SDS011;11357;49.990;7.370;2022-11-20T02:51:18;278.37;;;30.97;;
22378;SDS011;11357;49.990;7.370;2022-11-20T02:53:44;108.27;;;26.03;;
22378;SDS011;11357;49.990;7.370;2022-11-20T02:56:10;154.37;;;26.83;;
22378;SDS011;11357;49.990;7.370;2022-11-20T02:58:35;76.40;;;18.10;;
22378;SDS011;11357;49.990;7.370;2022-11-20T03:01:01;23.13;;;12.93;;
22378;SDS011;11357;49.990;7.370;2022-11-20T03:03:27;29.03;;;20.83;;
22378;SDS011;11357;49.990;7.370;2022-11-20T03:05:52;67.43;;;26.23;;
22378;SDS011;11357;49.990;7.370;2022-11-20T03:08:18;70.57;;;28.87;;
22378;SDS011;11357;49.990;7.370;2022-11-20T03:10:44;89.70;;;33.63;;
22378;SDS011;11357;49.990;7.370;2022-11-20T03:13:10;112.67;;;27.33;;
22378;SDS011;11357;49.990;7.370;2022-11-20T03:15:36;54.73;;;28.40;;
22378;SDS011;11357;49.990;7.370;2022-11-20T03:18:02;85.87;;;26.00;;
22378;SDS011;11357;49.990;7.370;2022-11-20T03:20:28;40.60;;;29.13;;
22378;SDS011;11357;49.990;7.370;2022-11-20T03:22:54;82.27;;;31.90;;
22378;SDS011;11357;49.990;7.370;2022-11-20T03:25:20;162.23;;;29.17;;
22378;SDS011;11357;49.990;7.370;2022-11-20T03:27:47;163.43;;;34.20;;
22378;SDS011;11357;49.990;7.370;2022-11-20T03:30:13;238.03;;;31.83;;
22378;SDS011;11357;49.990;7.370;2022-11-20T03:32:39;323.07;;;37.37;;
22378;SDS011;11357;49.990;7.370;2022-11-20T03:35:04;137.27;;;27.57;;
22378;SDS011;11357;49.990;7.370;2022-11-20T03:37:31;133.23;;;28.97;;
22378;SDS011;11357;49.990;7.370;2022-11-20T03:39:57;372.20;;;45.87;;
22378;SDS011;11357;49.990;7.370;2022-11-20T03:42:23;81.00;;;32.70;;
22378;SDS011;11357;49.990;7.370;2022-11-20T03:45:07;242.10;;;33.13;;
22378;SDS011;11357;49.990;7.370;2022-11-20T03:47:33;99.57;;;28.87;;
22378;SDS011;11357;49.990;7.370;2022-11-20T03:49:59;233.47;;;33.53;;
22378;SDS011;11357;49.990;7.370;2022-11-20T03:52:24;131.30;;;32.77;;
22378;SDS011;11357;49.990;7.370;2022-11-20T03:54:50;120.17;;;42.93;;
22378;SDS011;11357;49.990;7.370;2022-11-20T03:57:16;91.70;;;43.50;;
22378;SDS011;11357;49.990;7.370;2022-11-20T03:59:41;174.17;;;46.20;;
22378;SDS011;11357;49.990;7.370;2022-11-20T04:02:07;326.57;;;61.20;;
22378;SDS011;11357;49.990;7.370;2022-11-20T04:04:33;467.87;;;64.33;;
22378;SDS011;11357;49.990;7.370;2022-11-20T04:06:58;296.57;;;46.87;;
22378;SDS011;11357;49.990;7.370;2022-11-20T04:09:24;347.13;;;58.40;;
22378;SDS011;11357;49.990;7.370;2022-11-20T04:11:50;414.97;;;68.80;;
22378;SDS011;11357;49.990;7.370;2022-11-20T04:14:16;132.77;;;52.33;;
22378;SDS011;11357;49.990;7.370;2022-11-20T04:16:42;72.87;;;48.20;;
22378;SDS011;11357;49.990;7.370;2022-11-20T04:19:12;167.33;;;55.47;;
22378;SDS011;11357;49.990;7.370;2022-11-20T04:21:40;44.57;;;30.97;;
22378;SDS011;11357;49.990;7.370;2022-11-20T04:24:06;58.60;;;43.03;;
22378;SDS011;11357;49.990;7.370;2022-11-20T04:26:32;45.80;;;41.67;;
22378;SDS011;11357;49.990;7.370;2022-11-20T04:28:59;59.23;;;49.87;;
22378;SDS011;11357;49.990;7.370;2022-11-20T04:31:27;93.57;;;58.83;;
22378;SDS011;11357;49.990;7.370;2022-11-20T04:33:54;70.80;;;57.77;;
22378;SDS011;11357;49.990;7.370;2022-11-20T04:36:22;62.53;;;55.80;;
22378;SDS011;11357;49.990;7.370;2022-11-20T04:38:52;65.17;;;60.20;;
22378;SDS011;11357;49.990;7.370;2022-11-20T04:41:20;107.20;;;52.67;;
22378;SDS011;11357;49.990;7.370;2022-11-20T04:43:50;59.57;;;54.17;;
22378;SDS011;11357;49.990;7.370;2022-11-20T04:46:18;50.83;;;47.30;;
22378;SDS011;11357;49.990;7.370;2022-11-20T04:48:45;55.80;;;50.70;;
22378;SDS011;11357;49.990;7.370;2022-11-20T04:51:12;48.20;;;44.73;;
22378;SDS011;11357;49.990;7.370;2022-11-20T04:53:38;98.47;;;53.27;;
22378;SDS011;11357;49.990;7.370;2022-11-20T04:56:07;58.80;;;53.83;;
22378;SDS011;11357;49.990;7.370;2022-11-20T04:58:34;65.97;;;60.57;;
22378;SDS011;11357;49.990;7.370;2022-11-20T05:01:10;152.50;;;86.97;;
22378;SDS011;11357;49.990;7.370;2022-11-20T05:03:39;63.93;;;58.73;;
22378;SDS011;11357;49.990;7.370;2022-11-20T05:06:06;86.57;;;80.60;;
22378;SDS011;11357;49.990;7.370;2022-11-20T05:08:33;158.00;;;94.80;;
22378;SDS011;11357;49.990;7.370;2022-11-20T05:11:03;85.33;;;79.27;;
22378;SDS011;11357;49.990;7.370;2022-11-20T05:13:33;72.57;;;67.63;;
22378;SDS011;11357;49.990;7.370;2022-11-20T05:16:06;83.67;;;77.97;;
22378;SDS011;11357;49.990;7.370;2022-11-20T05:18:34;65.83;;;60.77;;
22378;SDS011;11357;49.990;7.370;2022-11-20T05:21:00;75.60;;;70.67;;
22378;SDS011;11357;49.990;7.370;2022-11-20T05:23:26;78.73;;;70.97;;
22378;SDS011;11357;49.990;7.370;2022-11-20T05:25:53;73.10;;;67.70;;
22378;SDS011;11357;49.990;7.370;2022-11-20T05:28:20;73.13;;;67.73;;
22378;SDS011;11357;49.990;7.370;2022-11-20T05:30:46;97.17;;;89.03;;
22378;SDS011;11357;49.990;7.370;2022-11-20T05:33:12;71.53;;;66.30;;
22378;SDS011;11357;49.990;7.370;2022-11-20T05:35:38;82.37;;;76.60;;
22378;SDS011;11357;49.990;7.370;2022-11-20T05:38:04;120.07;;;70.87;;
22378;SDS011;11357;49.990;7.370;2022-11-20T05:40:29;71.93;;;66.83;;
22378;SDS011;11357;49.990;7.370;2022-11-20T05:42:55;76.73;;;71.00;;
22378;SDS011;11357;49.990;7.370;2022-11-20T05:45:21;66.03;;;59.87;;
22378;SDS011;11357;49.990;7.370;2022-11-20T05:47:46;85.50;;;79.43;;
22378;SDS011;11357;49.990;7.370;2022-11-20T05:50:13;112.40;;;100.43;;
22378;SDS011;11357;49.990;7.370;2022-11-20T05:52:39;81.40;;;73.87;;
22378;SDS011;11357;49.990;7.370;2022-11-20T05:55:06;110.07;;;98.27;;
22378;SDS011;11357;49.990;7.370;2022-11-20T05:57:32;99.77;;;91.33;;
22378;SDS011;11357;49.990;7.370;2022-11-20T05:59:58;82.90;;;77.17;;
22378;SDS011;11357;49.990;7.370;2022-11-20T06:02:23;91.27;;;84.87;;
22378;SDS011;11357;49.990;7.370;2022-11-20T06:04:49;92.57;;;86.17;;
22378;SDS011;11357;49.990;7.370;2022-11-20T06:07:15;101.63;;;93.53;;
22378;SDS011;11357;49.990;7.370;2022-11-20T06:09:41;90.37;;;81.57;;
22378;SDS011;11357;49.990;7.370;2022-11-20T06:12:06;113.47;;;105.90;;
22378;SDS011;11357;49.990;7.370;2022-11-20T06:14:32;132.03;;;120.40;;
22378;SDS011;11357;49.990;7.370;2022-11-20T06:16:58;120.67;;;112.20;;
22378;SDS011;11357;49.990;7.370;2022-11-20T06:19:24;134.17;;;124.23;;
22378;SDS011;11357;49.990;7.370;2022-11-20T06:21:50;404.37;;;181.23;;
22378;SDS011;11357;49.990;7.370;2022-11-20T06:24:16;243.20;;;169.60;;
22378;SDS011;11357;49.990;7.370;2022-11-20T06:26:42;406.50;;;205.40;;
22378;SDS011;11357;49.990;7.370;2022-11-20T06:29:08;210.77;;;194.57;;
22378;SDS011;11357;49.990;7.370;2022-11-20T06:31:34;203.63;;;182.80;;
22378;SDS011;11357;49.990;7.370;2022-11-20T06:34:03;174.43;;;161.00;;
22378;SDS011;11357;49.990;7.370;2022-11-20T06:36:29;203.37;;;185.83;;
22378;SDS011;11357;49.990;7.370;2022-11-20T06:38:55;243.90;;;189.83;;
22378;SDS011;11357;49.990;7.370;2022-11-20T06:41:21;308.30;;;190.37;;
22378;SDS011;11357;49.990;7.370;2022-11-20T06:43:47;411.20;;;230.73;;
22378;SDS011;11357;49.990;7.370;2022-11-20T06:46:14;418.70;;;225.93;;
22378;SDS011;11357;49.990;7.370;2022-11-20T06:48:44;280.30;;;220.00;;
22378;SDS011;11357;49.990;7.370;2022-11-20T06:51:10;285.60;;;224.90;;
22378;SDS011;11357;49.990;7.370;2022-11-20T06:53:35;428.33;;;281.67;;
22378;SDS011;11357;49.990;7.370;2022-11-20T06:56:02;392.33;;;262.37;;
22378;SDS011;11357;49.990;7.370;2022-11-20T06:58:28;269.30;;;241.70;;
22378;SDS011;11357;49.990;7.370;2022-11-20T07:01:03;288.20;;;262.83;;
22378;SDS011;11357;49.990;7.370;2022-11-20T07:03:30;453.30;;;325.63;;
22378;SDS011;11357;49.990;7.370;2022-11-20T07:05:57;235.33;;;218.07;;
22378;SDS011;11357;49.990;7.370;2022-11-20T07:08:23;275.13;;;249.30;;
22378;SDS011;11357;49.990;7.370;2022-11-20T07:10:49;280.07;;;256.53;;
22378;SDS011;11357;49.990;7.370;2022-11-20T07:13:15;246.30;;;226.20;;
22378;SDS011;11357;49.990;7.370;2022-11-20T07:15:41;252.03;;;230.67;;
22378;SDS011;11357;49.990;7.370;2022-11-20T07:18:07;274.20;;;253.63;;
22378;SDS011;11357;49.990;7.370;2022-11-20T07:20:32;212.40;;;196.77;;
22378;SDS011;11357;49.990;7.370;2022-11-20T07:22:58;221.30;;;203.43;;
22378;SDS011;11357;49.990;7.370;2022-11-20T07:25:24;242.37;;;224.67;;
22378;SDS011;11357;49.990;7.370;2022-11-20T07:27:51;219.80;;;203.33;;
22378;SDS011;11357;49.990;7.370;2022-11-20T07:30:18;219.13;;;202.60;;
22378;SDS011;11357;49.990;7.370;2022-11-20T07:32:50;192.47;;;178.60;;
22378;SDS011;11357;49.990;7.370;2022-11-20T07:35:17;201.00;;;187.17;;
22378;SDS011;11357;49.990;7.370;2022-11-20T07:37:43;120.53;;;111.20;;
22378;SDS011;11357;49.990;7.370;2022-11-20T07:40:11;133.20;;;123.90;;
22378;SDS011;11357;49.990;7.370;2022-11-20T07:42:38;102.03;;;94.37;;
22378;SDS011;11357;49.990;7.370;2022-11-20T07:45:04;87.40;;;80.50;;
22378;SDS011;11357;49.990;7.370;2022-11-20T07:47:34;149.40;;;139.13;;
22378;SDS011;11357;49.990;7.370;2022-11-20T07:50:01;120.23;;;112.33;;
22378;SDS011;11357;49.990;7.370;2022-11-20T07:52:27;162.10;;;150.83;;
22378;SDS011;11357;49.990;7.370;2022-11-20T07:54:53;122.73;;;114.77;;
22378;SDS011;11357;49.990;7.370;2022-11-20T07:57:19;83.50;;;77.77;;
22378;SDS011;11357;49.990;7.370;2022-11-20T07:59:45;111.43;;;104.07;;
22378;SDS011;11357;49.990;7.370;2022-11-20T08:02:11;112.70;;;104.70;;
22378;SDS011;11357;49.990;7.370;2022-11-20T08:04:36;97.50;;;90.67;;
22378;SDS011;11357;49.990;7.370;2022-11-20T08:07:02;64.57;;;59.87;;
22378;SDS011;11357;49.990;7.370;2022-11-20T08:09:28;71.93;;;66.70;;
22378;SDS011;11357;49.990;7.370;2022-11-20T08:11:54;99.20;;;91.70;;
22378;SDS011;11357;49.990;7.370;2022-11-20T08:14:38;35.57;;;32.37;;
22378;SDS011;11357;49.990;7.370;2022-11-20T08:17:04;55.60;;;51.50;;
22378;SDS011;11357;49.990;7.370;2022-11-20T08:19:29;56.00;;;51.57;;
22378;SDS011;11357;49.990;7.370;2022-11-20T08:21:55;68.77;;;63.43;;
22378;SDS011;11357;49.990;7.370;2022-11-20T08:24:21;53.00;;;48.80;;
22378;SDS011;11357;49.990;7.370;2022-11-20T08:26:47;29.40;;;23.20;;
22378;SDS011;11357;49.990;7.370;2022-11-20T08:29:12;65.57;;;60.97;;
22378;SDS011;11357;49.990;7.370;2022-11-20T08:31:38;33.87;;;30.93;;
22378;SDS011;11357;49.990;7.370;2022-11-20T08:34:04;49.30;;;44.97;;
22378;SDS011;11357;49.990;7.370;2022-11-20T08:36:32;42.27;;;38.53;;
22378;SDS011;11357;49.990;7.370;2022-11-20T08:38:59;53.90;;;49.43;;
22378;SDS011;11357;49.990;7.370;2022-11-20T08:41:24;58.87;;;54.53;;
22378;SDS011;11357;49.990;7.370;2022-11-20T08:44:01;57.63;;;53.60;;
22378;SDS011;11357;49.990;7.370;2022-11-20T08:46:33;59.57;;;54.73;;
22378;SDS011;11357;49.990;7.370;2022-11-20T08:49:09;43.47;;;39.67;;
22378;SDS011;11357;49.990;7.370;2022-11-20T08:51:36;35.93;;;32.63;;
22378;SDS011;11357;49.990;7.370;2022-11-20T08:54:03;24.00;;;20.97;;
22378;SDS011;11357;49.990;7.370;2022-11-20T08:56:29;39.77;;;36.50;;
22378;SDS011;11357;49.990;7.370;2022-11-20T08:58:55;29.00;;;25.90;;
22378;SDS011;11357;49.990;7.370;2022-11-20T09:01:21;42.23;;;38.63;;
22378;SDS011;11357;49.990;7.370;2022-11-20T09:03:48;40.70;;;37.30;;
22378;SDS011;11357;49.990;7.370;2022-11-20T09:06:14;27.13;;;24.50;;
22378;SDS011;11357;49.990;7.370;2022-11-20T09:08:40;54.93;;;51.07;;
22378;SDS011;11357;49.990;7.370;2022-11-20T09:11:07;22.00;;;19.13;;
22378;SDS011;11357;49.990;7.370;2022-11-20T09:13:33;36.63;;;32.93;;
22378;SDS011;11357;49.990;7.370;2022-11-20T09:16:02;49.37;;;45.80;;
22378;SDS011;11357;49.990;7.370;2022-11-20T09:18:29;72.33;;;67.03;;
22378;SDS011;11357;49.990;7.370;2022-11-20T09:21:01;60.93;;;56.13;;
22378;SDS011;11357;49.990;7.370;2022-11-20T09:23:32;55.67;;;51.57;;
22378;SDS011;11357;49.990;7.370;2022-11-20T09:26:07;58.17;;;53.63;;
22378;SDS011;11357;49.990;7.370;2022-11-20T09:28:36;53.13;;;48.83;;
22378;SDS011;11357;49.990;7.370;2022-11-20T09:31:06;99.40;;;92.80;;
22378;SDS011;11357;49.990;7.370;2022-11-20T09:33:33;121.13;;;113.30;;
22378;SDS011;11357;49.990;7.370;2022-11-20T09:35:59;124.67;;;116.37;;
22378;SDS011;11357;49.990;7.370;2022-11-20T09:38:25;82.13;;;76.10;;
22378;SDS011;11357;49.990;7.370;2022-11-20T09:41:01;105.20;;;97.67;;
22378;SDS011;11357;49.990;7.370;2022-11-20T09:46:17;114.37;;;106.07;;
22378;SDS011;11357;49.990;7.370;2022-11-20T09:54:15;171.60;;;159.73;;
22378;SDS011;11357;49.990;7.370;2022-11-20T09:56:50;123.43;;;114.83;;
22378;SDS011;11357;49.990;7.370;2022-11-20T09:59:36;146.87;;;137.43;;
22378;SDS011;11357;49.990;7.370;2022-11-20T10:02:48;189.90;;;176.77;;
22378;SDS011;11357;49.990;7.370;2022-11-20T10:05:08;173.23;;;161.67;;
22378;SDS011;11357;49.990;7.370;2022-11-20T10:22:22;189.00;;;175.77;;
22378;SDS011;11357;49.990;7.370;2022-11-20T10:25:13;163.10;;;152.13;;
22378;SDS011;11357;49.990;7.370;2022-11-20T10:30:16;293.67;;;273.23;;
22378;SDS011;11357;49.990;7.370;2022-11-20T10:33:04;299.57;;;278.80;;
22378;SDS011;11357;49.990;7.370;2022-11-20T10:35:41;254.70;;;237.67;;
22378;SDS011;11357;49.990;7.370;2022-11-20T10:38:20;316.73;;;294.80;;
22378;SDS011;11357;49.990;7.370;2022-11-20T10:40:54;275.73;;;256.80;;
22378;SDS011;11357;49.990;7.370;2022-11-20T10:46:40;233.53;;;217.40;;
22378;SDS011;11357;49.990;7.370;2022-11-20T10:49:13;358.77;;;333.50;;
22378;SDS011;11357;49.990;7.370;2022-11-20T10:57:15;328.90;;;305.50;;
22378;SDS011;11357;49.990;7.370;2022-11-20T11:00:07;286.13;;;266.03;;
22378;SDS011;11357;49.990;7.370;2022-11-20T11:02:50;358.43;;;333.20;;
22378;SDS011;11357;49.990;7.370;2022-11-20T11:08:04;361.63;;;335.73;;
22378;SDS011;11357;49.990;7.370;2022-11-20T11:13:20;440.83;;;401.93;;
22378;SDS011;11357;49.990;7.370;2022-11-20T11:15:50;308.43;;;285.67;;
22378;SDS011;11357;49.990;7.370;2022-11-20T11:21:31;409.00;;;379.47;;
22378;SDS011;11357;49.990;7.370;2022-11-20T11:24:04;510.93;;;469.37;;
22378;SDS011;11357;49.990;7.370;2022-11-20T11:26:29;573.90;;;525.40;;
22378;SDS011;11357;49.990;7.370;2022-11-20T11:28:59;524.70;;;482.53;;
22378;SDS011;11357;49.990;7.370;2022-11-20T11:31:27;555.63;;;510.03;;
22378;SDS011;11357;49.990;7.370;2022-11-20T11:34:05;296.33;;;272.73;;
22378;SDS011;11357;49.990;7.370;2022-11-20T11:36:41;370.73;;;344.97;;
22378;SDS011;11357;49.990;7.370;2022-11-20T11:39:14;382.73;;;354.70;;
22378;SDS011;11357;49.990;7.370;2022-11-20T11:41:42;398.80;;;367.83;;
22378;SDS011;11357;49.990;7.370;2022-11-20T11:47:01;461.50;;;427.73;;
22378;SDS011;11357;49.990;7.370;2022-11-20T11:49:29;480.93;;;444.20;;
22378;SDS011;11357;49.990;7.370;2022-11-20T12:00:10;442.60;;;407.23;;
22378;SDS011;11357;49.990;7.370;2022-11-20T12:16:33;132.20;;;123.83;;
22378;SDS011;11357;49.990;7.370;2022-11-20T12:19:01;291.00;;;271.27;;
22378;SDS011;11357;49.990;7.370;2022-11-20T12:37:36;72.33;;;67.33;;
22378;SDS011;11357;49.990;7.370;2022-11-20T12:40:32;153.00;;;142.47;;
22378;SDS011;11357;49.990;7.370;2022-11-20T12:48:38;68.97;;;64.57;;
22378;SDS011;11357;49.990;7.370;2022-11-20T12:51:24;102.13;;;95.20;;
22378;SDS011;11357;49.990;7.370;2022-11-20T13:08:23;29.60;;;27.30;;
22378;SDS011;11357;49.990;7.370;2022-11-20T13:11:27;26.53;;;24.77;;
22378;SDS011;11357;49.990;7.370;2022-11-20T13:19:19;54.67;;;51.40;;
22378;SDS011;11357;49.990;7.370;2022-11-20T13:21:47;26.10;;;24.10;;
22378;SDS011;11357;49.990;7.370;2022-11-20T13:26:44;11.70;;;9.47;;
22378;SDS011;11357;49.990;7.370;2022-11-20T13:29:11;67.87;;;64.17;;
22378;SDS011;11357;49.990;7.370;2022-11-20T13:31:45;11.90;;;9.43;;
22378;SDS011;11357;49.990;7.370;2022-11-20T13:34:25;10.33;;;5.23;;
22378;SDS011;11357;49.990;7.370;2022-11-20T13:36:53;9.60;;;5.77;;
22378;SDS011;11357;49.990;7.370;2022-11-20T13:39:28;6.67;;;5.87;;
22378;SDS011;11357;49.990;7.370;2022-11-20T13:42:00;22.97;;;21.13;;
22378;SDS011;11357;49.990;7.370;2022-11-20T13:44:41;21.50;;;19.70;;
22378;SDS011;11357;49.990;7.370;2022-11-20T13:47:46;10.70;;;9.33;;
22378;SDS011;11357;49.990;7.370;2022-11-20T13:50:02;38.40;;;36.20;;
22378;SDS011;11357;49.990;7.370;2022-11-20T14:00:32;10.83;;;4.13;;
22378;SDS011;11357;49.990;7.370;2022-11-20T14:08:26;7.23;;;5.20;;
22378;SDS011;11357;49.990;7.370;2022-11-20T14:11:13;6.03;;;2.10;;
22378;SDS011;11357;49.990;7.370;2022-11-20T14:13:54;16.43;;;15.17;;
22378;SDS011;11357;49.990;7.370;2022-11-20T14:16:28;55.13;;;52.03;;
22378;SDS011;11357;49.990;7.370;2022-11-20T14:18:56;110.30;;;104.00;;
22378;SDS011;11357;49.990;7.370;2022-11-20T14:21:33;54.77;;;51.57;;
22378;SDS011;11357;49.990;7.370;2022-11-20T14:24:03;100.97;;;95.63;;
22378;SDS011;11357;49.990;7.370;2022-11-20T14:26:29;27.77;;;26.10;;
22378;SDS011;11357;49.990;7.370;2022-11-20T14:28:55;48.80;;;45.67;;
22378;SDS011;11357;49.990;7.370;2022-11-20T14:31:23;19.97;;;18.80;;
22378;SDS011;11357;49.990;7.370;2022-11-20T14:33:51;35.63;;;33.60;;
22378;SDS011;11357;49.990;7.370;2022-11-20T14:36:19;93.67;;;88.50;;
22378;SDS011;11357;49.990;7.370;2022-11-20T14:38:47;74.93;;;70.73;;
22378;SDS011;11357;49.990;7.370;2022-11-20T14:41:18;113.63;;;107.40;;
22378;SDS011;11357;49.990;7.370;2022-11-20T14:44:08;133.37;;;125.67;;
22378;SDS011;11357;49.990;7.370;2022-11-20T14:49:44;73.20;;;69.00;;
22378;SDS011;11357;49.990;7.370;2022-11-20T14:54:57;52.50;;;49.17;;
22378;SDS011;11357;49.990;7.370;2022-11-20T15:02:51;59.63;;;55.80;;
22378;SDS011;11357;49.990;7.370;2022-11-20T15:10:51;39.47;;;37.17;;
22378;SDS011;11357;49.990;7.370;2022-11-20T15:16:21;44.67;;;42.03;;
22378;SDS011;11357;49.990;7.370;2022-11-20T15:18:48;61.03;;;57.50;;
22378;SDS011;11357;49.990;7.370;2022-11-20T15:21:15;40.77;;;38.20;;
22378;SDS011;11357;49.990;7.370;2022-11-20T15:23:43;81.17;;;76.30;;
22378;SDS011;11357;49.990;7.370;2022-11-20T15:26:10;79.40;;;74.50;;
22378;SDS011;11357;49.990;7.370;2022-11-20T15:28:46;71.70;;;67.67;;
22378;SDS011;11357;49.990;7.370;2022-11-20T15:34:18;47.60;;;44.83;;
22378;SDS011;11357;49.990;7.370;2022-11-20T15:36:47;75.43;;;70.67;;
22378;SDS011;11357;49.990;7.370;2022-11-20T15:41:43;50.77;;;47.57;;
22378;SDS011;11357;49.990;7.370;2022-11-20T15:44:09;22.13;;;17.67;;
22378;SDS011;11357;49.990;7.370;2022-11-20T15:46:39;40.43;;;37.93;;
22378;SDS011;11357;49.990;7.370;2022-11-20T15:49:12;31.40;;;28.97;;
22378;SDS011;11357;49.990;7.370;2022-11-20T15:51:41;25.07;;;22.40;;
22378;SDS011;11357;49.990;7.370;2022-11-20T15:54:10;17.27;;;16.10;;
22378;SDS011;11357;49.990;7.370;2022-11-20T15:56:48;22.67;;;21.30;;
22378;SDS011;11357;49.990;7.370;2022-11-20T15:59:14;42.30;;;39.90;;
22378;SDS011;11357;49.990;7.370;2022-11-20T16:01:41;29.53;;;27.67;;
22378;SDS011;11357;49.990;7.370;2022-11-20T16:04:14;5.17;;;3.63;;
22378;SDS011;11357;49.990;7.370;2022-11-20T16:06:41;4.20;;;2.97;;
22378;SDS011;11357;49.990;7.370;2022-11-20T16:09:07;13.87;;;12.67;;
22378;SDS011;11357;49.990;7.370;2022-11-20T16:11:33;51.13;;;48.20;;
22378;SDS011;11357;49.990;7.370;2022-11-20T16:14:02;49.13;;;46.03;;
22378;SDS011;11357;49.990;7.370;2022-11-20T16:16:49;40.37;;;37.80;;
22378;SDS011;11357;49.990;7.370;2022-11-20T16:19:17;27.10;;;25.47;;
22378;SDS011;11357;49.990;7.370;2022-11-20T16:21:46;74.47;;;70.10;;
22378;SDS011;11357;49.990;7.370;2022-11-20T16:26:46;31.90;;;29.90;;
22378;SDS011;11357;49.990;7.370;2022-11-20T16:29:13;40.90;;;38.83;;
22378;SDS011;11357;49.990;7.370;2022-11-20T16:31:39;28.33;;;26.73;;
22378;SDS011;11357;49.990;7.370;2022-11-20T16:34:07;38.13;;;35.97;;
22378;SDS011;11357;49.990;7.370;2022-11-20T16:39:15;56.73;;;53.67;;
22378;SDS011;11357;49.990;7.370;2022-11-20T16:41:42;34.67;;;32.73;;
22378;SDS011;11357;49.990;7.370;2022-11-20T16:44:09;148.10;;;138.40;;
22378;SDS011;11357;49.990;7.370;2022-11-20T16:49:33;43.57;;;41.10;;
22378;SDS011;11357;49.990;7.370;2022-11-20T16:51:59;44.13;;;41.67;;
22378;SDS011;11357;49.990;7.370;2022-11-20T16:54:25;78.63;;;74.10;;
22378;SDS011;11357;49.990;7.370;2022-11-20T16:56:52;112.17;;;105.10;;
22378;SDS011;11357;49.990;7.370;2022-11-20T16:59:18;65.47;;;61.67;;
22378;SDS011;11357;49.990;7.370;2022-11-20T17:01:44;173.70;;;163.47;;
22378;SDS011;11357;49.990;7.370;2022-11-20T17:04:13;148.17;;;139.50;;
22378;SDS011;11357;49.990;7.370;2022-11-20T17:06:42;299.10;;;278.37;;
22378;SDS011;11357;49.990;7.370;2022-11-20T17:09:08;139.53;;;130.57;;
22378;SDS011;11357;49.990;7.370;2022-11-20T17:11:35;176.33;;;166.03;;
22378;SDS011;11357;49.990;7.370;2022-11-20T17:14:01;245.50;;;230.37;;